This is the latest recevied weather packets stored in our database for station/object WD9EKA. If no packets are shown the sender has not sent any weather packets the latest 10 day(s).
| Time | Temp. | Humidity | Pressure | Rain* | Wind** | Luminosity | Snow |
|---|---|---|---|---|---|---|---|
| 1777678093 | 11.11° C | 67% | 1011.6 hPa | 0 mm | - | - | - |
| 1777677772 | 12.22° C | 62% | 1011.5 hPa | 0 mm | - | - | - |
| 1777677453 | 12.78° C | 59% | 1011.4 hPa | 0 mm | - | - | - |
| 1777677133 | 12.22° C | 58% | 1011.4 hPa | 0 mm | - | - | - |
| 1777676813 | 12.22° C | 57% | 1011.6 hPa | 0 mm | - | - | - |
| 1777676493 | 12.22° C | 56% | 1011.8 hPa | 0 mm | - | - | - |
| 1777676173 | 12.22° C | 59% | 1011.6 hPa | 0 mm | - | - | - |
| 1777675853 | 12.22° C | 59% | 1011.7 hPa | 0 mm | - | - | - |
| 1777675533 | 12.22° C | 62% | 1011.8 hPa | 0 mm | - | - | - |
| 1777675213 | 12.22° C | 60% | 1011.8 hPa | 0 mm | - | - | - |
| 1777674893 | 12.22° C | 60% | 1011.6 hPa | 0 mm | - | - | - |
| 1777674573 | 12.22° C | 59% | 1011.6 hPa | 0 mm | - | - | - |
| 1777674254 | 12.22° C | 60% | 1011.5 hPa | 0 mm | - | - | - |
| 1777673934 | 12.22° C | 60% | 1011.6 hPa | 0 mm | - | - | - |
| 1777673613 | 12.22° C | 61% | 1011.6 hPa | 0 mm | - | - | - |
| 1777673293 | 12.22° C | 61% | 1011.6 hPa | 0 mm | - | - | - |
| 1777672973 | 12.22° C | 59% | 1011.5 hPa | 0 mm | - | - | - |
| 1777672653 | 12.22° C | 58% | 1011.5 hPa | 0 mm | - | - | - |
| 1777672333 | 12.22° C | 59% | 1011.6 hPa | 0 mm | - | - | - |
| 1777672013 | 12.22° C | 59% | 1011.9 hPa | 0 mm | - | - | - |
| 1777671693 | 12.78° C | 58% | 1011.8 hPa | 0 mm | - | - | - |
| 1777671053 | 12.78° C | 56% | 1011.7 hPa | 0 mm | - | - | - |
| 1777670733 | 12.78° C | 54% | 1011.7 hPa | 0 mm | - | - | - |
| 1777670414 | 13.33° C | 56% | 1011.8 hPa | 0 mm | - | - | - |
| 1777670093 | 12.78° C | 63% | 1011.9 hPa | 0 mm | - | - | - |
* Rain latest hour (hover to see other rain measurements)
** Current wind speed in m/s (hover to see current wind gust speed)